createdAt,value
2023-02-11T00:01:08.716Z,15.82
2023-02-11T00:03:37.134Z,16.07
2023-02-11T00:06:09.166Z,16.13
2023-02-11T00:08:37.160Z,17.58
2023-02-11T00:11:05.451Z,18.08
2023-02-11T00:13:34.777Z,19.90
2023-02-11T00:16:08.014Z,18.02
2023-02-11T00:18:36.348Z,16.13
2023-02-11T00:21:08.432Z,18.40
2023-02-11T00:23:36.351Z,17.10
2023-02-11T00:26:04.486Z,17.63
2023-02-11T00:28:32.216Z,17.20
2023-02-11T00:31:02.436Z,15.98
2023-02-11T00:33:30.198Z,15.27
2023-02-11T00:35:57.878Z,14.90
2023-02-11T00:38:25.644Z,14.65
2023-02-11T00:40:53.310Z,15.93
2023-02-11T00:43:20.940Z,13.40
2023-02-11T00:45:48.827Z,14.35
2023-02-11T00:48:17.993Z,14.27
2023-02-11T00:50:45.645Z,13.75
2023-02-11T00:53:13.385Z,14.35
2023-02-11T00:55:41.009Z,14.68
2023-02-11T00:58:08.674Z,15.05
2023-02-11T01:00:36.316Z,13.02
2023-02-11T01:03:04.005Z,14.60
2023-02-11T01:05:33.083Z,14.43
2023-02-11T01:08:00.770Z,13.85
2023-02-11T01:10:28.944Z,14.80
2023-02-11T01:12:56.579Z,13.82
2023-02-11T01:15:24.316Z,15.57
2023-02-11T01:17:52.008Z,13.52
2023-02-11T01:20:22.004Z,14.32
2023-02-11T01:22:51.188Z,17.98
2023-02-11T01:25:18.986Z,17.30
2023-02-11T01:27:46.584Z,15.27
2023-02-11T01:30:15.072Z,14.75
2023-02-11T01:32:42.755Z,15.20
2023-02-11T01:35:10.565Z,13.82
2023-02-11T01:37:38.243Z,14.02
2023-02-11T01:40:13.566Z,14.35
2023-02-11T01:42:41.297Z,12.98
2023-02-11T01:45:53.973Z,12.30
2023-02-11T01:48:24.906Z,13.13
2023-02-11T01:50:56.818Z,11.80
2023-02-11T01:53:42.525Z,12.88
2023-02-11T01:56:29.972Z,12.85
2023-02-11T01:59:03.791Z,12.45
2023-02-11T02:01:34.784Z,12.02
2023-02-11T02:04:05.984Z,12.50
2023-02-11T02:06:37.170Z,12.80
2023-02-11T02:09:09.741Z,11.95
2023-02-11T02:11:39.040Z,10.57
2023-02-11T02:14:06.917Z,11.38
2023-02-11T02:16:36.725Z,11.63
2023-02-11T02:19:46.646Z,13.13
2023-02-11T02:22:48.940Z,11.05
2023-02-11T02:25:34.539Z,10.43
2023-02-11T02:28:24.587Z,11.27
2023-02-11T02:31:16.709Z,10.52
2023-02-11T02:33:54.388Z,11.30
2023-02-11T02:36:29.375Z,10.77
2023-02-11T02:39:02.004Z,12.88
2023-02-11T02:41:31.679Z,10.73
2023-02-11T02:43:59.613Z,11.45
2023-02-11T02:46:29.609Z,12.43
2023-02-11T02:48:59.271Z,12.48
2023-02-11T02:51:54.753Z,11.07
2023-02-11T02:54:51.036Z,13.73
2023-02-11T02:57:30.120Z,15.88
2023-02-11T03:00:10.670Z,16.05
2023-02-11T03:02:47.909Z,16.38
2023-02-11T03:05:21.846Z,17.35
2023-02-11T03:07:56.784Z,16.27
2023-02-11T03:10:27.871Z,15.57
2023-02-11T03:12:57.437Z,16.42
2023-02-11T03:15:29.148Z,16.65
2023-02-11T03:18:00.732Z,16.67
2023-02-11T03:20:33.707Z,17.02
2023-02-11T03:25:38.366Z,16.88
2023-02-11T03:28:13.984Z,15.70
2023-02-11T03:30:47.974Z,16.65
2023-02-11T03:33:21.760Z,17.67
2023-02-11T03:35:56.593Z,16.75
2023-02-11T03:38:28.656Z,15.93
2023-02-11T03:40:57.434Z,16.60
2023-02-11T03:43:28.965Z,17.55
2023-02-11T03:45:58.128Z,15.65
2023-02-11T03:48:29.036Z,17.05
2023-02-11T03:51:00.681Z,17.70
2023-02-11T03:53:28.626Z,16.85
2023-02-11T03:55:59.785Z,17.02
2023-02-11T03:58:27.470Z,17.25
2023-02-11T04:00:55.128Z,16.27
2023-02-11T04:03:22.978Z,16.65
2023-02-11T04:05:50.883Z,17.40
2023-02-11T04:08:20.065Z,16.95
2023-02-11T04:10:47.720Z,17.42
2023-02-11T04:13:15.313Z,17.27
2023-02-11T04:15:42.918Z,15.82
2023-02-11T04:18:10.604Z,16.98
2023-02-11T04:20:38.278Z,16.67
2023-02-11T04:23:05.908Z,16.70
2023-02-11T04:25:34.896Z,15.35
2023-02-11T04:28:02.660Z,16.35
2023-02-11T04:30:30.304Z,15.88
2023-02-11T04:32:59.225Z,15.48
2023-02-11T04:35:27.054Z,15.00
2023-02-11T04:37:54.705Z,15.27
2023-02-11T04:40:22.368Z,15.35
2023-02-11T04:42:51.349Z,16.35
2023-02-11T04:45:19.168Z,16.08
2023-02-11T04:47:46.764Z,16.08
2023-02-11T04:50:14.523Z,14.90
2023-02-11T04:52:42.173Z,14.88
2023-02-11T04:55:09.833Z,15.05
2023-02-11T04:57:37.496Z,15.13
2023-02-11T05:00:08.314Z,15.05
2023-02-11T05:02:36.031Z,15.00
2023-02-11T05:05:04.287Z,14.68
2023-02-11T05:07:32.028Z,14.15
2023-02-11T05:09:59.765Z,15.50
2023-02-11T05:12:27.430Z,15.38
2023-02-11T05:14:55.137Z,14.77
2023-02-11T05:17:24.240Z,14.75
2023-02-11T05:19:51.855Z,15.48
2023-02-11T05:22:19.735Z,15.68
2023-02-11T05:24:47.343Z,16.33
2023-02-11T05:27:15.063Z,14.25
2023-02-11T05:29:42.782Z,14.38
2023-02-11T05:32:10.525Z,14.63
2023-02-11T05:34:39.498Z,14.82
2023-02-11T05:37:07.196Z,14.90
2023-02-11T05:39:34.864Z,13.30
2023-02-11T05:42:02.589Z,16.30
2023-02-11T05:44:30.188Z,16.20
2023-02-11T05:46:57.875Z,15.05
2023-02-11T05:49:25.512Z,14.57
2023-02-11T05:51:54.532Z,14.13
2023-02-11T05:54:22.272Z,12.30
2023-02-11T05:56:49.866Z,13.68
2023-02-11T05:59:17.974Z,12.35
2023-02-11T06:01:45.658Z,13.57
2023-02-11T06:04:13.301Z,12.93
2023-02-11T06:06:40.978Z,13.13
2023-02-11T06:09:11.196Z,12.02
2023-02-11T06:11:39.052Z,13.65
2023-02-11T06:14:06.703Z,13.40
2023-02-11T06:16:34.401Z,12.18
2023-02-11T06:19:01.988Z,12.63
2023-02-11T06:21:42.894Z,12.20
2023-02-11T06:24:12.401Z,13.10
2023-02-11T06:26:40.114Z,13.00
2023-02-11T06:29:07.762Z,11.93
2023-02-11T06:31:35.904Z,12.20
2023-02-11T06:34:03.704Z,11.45
2023-02-11T06:36:31.469Z,12.13
2023-02-11T06:38:59.140Z,11.50
2023-02-11T06:41:28.150Z,12.35
2023-02-11T06:43:55.851Z,12.07
2023-02-11T06:46:23.668Z,12.13
2023-02-11T06:48:51.301Z,12.27
2023-02-11T06:51:18.952Z,13.15
2023-02-11T06:53:48.267Z,12.93
2023-02-11T06:56:21.070Z,13.35
2023-02-11T06:58:54.659Z,13.13
2023-02-11T07:01:22.910Z,12.18
2023-02-11T07:03:51.468Z,12.77
2023-02-11T07:06:24.715Z,14.07
2023-02-11T07:08:52.446Z,13.60
2023-02-11T07:11:24.220Z,12.52
2023-02-11T07:13:54.975Z,13.02
2023-02-11T07:16:23.495Z,14.40
2023-02-11T07:18:51.529Z,13.00
2023-02-11T07:21:21.949Z,13.07
2023-02-11T07:23:49.982Z,12.48
2023-02-11T07:26:19.637Z,11.85
2023-02-11T07:28:47.629Z,13.18
2023-02-11T07:31:18.515Z,13.48
2023-02-11T07:33:46.982Z,13.32
2023-02-11T07:36:16.514Z,16.33
2023-02-11T07:38:44.827Z,14.10
2023-02-11T07:41:18.395Z,12.45
2023-02-11T07:43:46.704Z,13.10
2023-02-11T07:46:18.696Z,13.30
2023-02-11T07:48:46.500Z,11.83
2023-02-11T07:51:16.221Z,11.93
2023-02-11T07:53:44.011Z,13.18
2023-02-11T07:56:13.125Z,13.13
2023-02-11T07:58:42.108Z,13.50
2023-02-11T08:01:12.162Z,13.80
2023-02-11T08:03:43.023Z,13.30
2023-02-11T08:06:13.608Z,13.40
2023-02-11T08:08:41.721Z,13.60
2023-02-11T08:11:11.248Z,13.15
2023-02-11T08:13:39.754Z,13.27
2023-02-11T08:16:08.467Z,12.27
2023-02-11T08:18:37.046Z,13.32
2023-02-11T08:21:07.559Z,12.32
2023-02-11T08:23:36.804Z,13.05
2023-02-11T08:26:05.345Z,13.77
2023-02-11T08:28:35.899Z,15.07
2023-02-11T08:31:06.744Z,14.18
2023-02-11T08:33:34.693Z,13.85
2023-02-11T08:36:03.708Z,13.80
2023-02-11T08:38:32.657Z,14.00
2023-02-11T08:41:00.822Z,15.27
2023-02-11T08:43:28.543Z,14.15
2023-02-11T08:45:56.251Z,15.18
2023-02-11T08:48:23.980Z,15.38
2023-02-11T08:50:51.610Z,14.20
2023-02-11T08:53:19.195Z,13.65
2023-02-11T08:55:51.488Z,14.43
2023-02-11T08:58:19.983Z,12.82
2023-02-11T09:00:48.445Z,14.48
2023-02-11T09:03:16.967Z,16.23
2023-02-11T09:05:45.636Z,15.10
2023-02-11T09:08:13.564Z,15.82
2023-02-11T09:10:41.612Z,14.27
2023-02-11T09:13:10.982Z,15.02
2023-02-11T09:15:38.649Z,14.75
2023-02-11T09:18:07.381Z,15.77
2023-02-11T09:20:35.023Z,15.27
2023-02-11T09:23:02.603Z,15.63
2023-02-11T09:25:30.248Z,14.63
2023-02-11T09:27:57.882Z,15.93
2023-02-11T09:30:26.993Z,15.38
2023-02-11T09:32:54.667Z,15.63
2023-02-11T09:35:22.342Z,15.25
2023-02-11T09:37:50.015Z,12.30
2023-02-11T09:40:19.889Z,15.43
2023-02-11T09:42:52.971Z,16.85
2023-02-11T09:45:23.130Z,16.45
2023-02-11T09:47:56.628Z,16.88
2023-02-11T09:50:30.473Z,16.30
2023-02-11T09:53:03.123Z,16.35
2023-02-11T09:55:34.188Z,17.83
2023-02-11T09:58:04.326Z,17.95
2023-02-11T10:00:35.774Z,18.58
2023-02-11T10:03:36.227Z,16.90
2023-02-11T10:06:20.672Z,15.20
2023-02-11T10:09:00.147Z,17.02
2023-02-11T10:11:36.045Z,15.48
2023-02-11T10:14:17.119Z,16.73
2023-02-11T10:16:58.827Z,14.95
2023-02-11T10:19:38.748Z,15.20
2023-02-11T10:22:13.169Z,15.60
2023-02-11T10:24:43.636Z,15.82
2023-02-11T10:27:16.893Z,14.88
2023-02-11T10:29:50.715Z,15.18
2023-02-11T10:32:28.791Z,17.35
2023-02-11T10:34:59.608Z,16.25
2023-02-11T10:37:28.778Z,15.68
2023-02-11T10:39:56.482Z,15.45
2023-02-11T10:42:24.083Z,15.93
2023-02-11T10:45:00.122Z,14.30
2023-02-11T10:47:32.796Z,16.35
2023-02-11T10:50:03.598Z,14.65
2023-02-11T10:52:32.952Z,15.38
2023-02-11T10:55:03.714Z,16.60
2023-02-11T10:57:35.494Z,15.93
2023-02-11T11:00:09.021Z,16.95
2023-02-11T11:02:44.021Z,17.50
2023-02-11T11:05:18.298Z,17.48
2023-02-11T11:07:55.547Z,16.75
2023-02-11T11:10:35.753Z,17.77
2023-02-11T11:13:03.639Z,17.83
2023-02-11T11:15:33.423Z,17.40
2023-02-11T11:18:22.058Z,17.23
2023-02-11T11:20:59.464Z,17.33
2023-02-11T11:23:30.305Z,17.70
2023-02-11T11:26:07.384Z,17.08
2023-02-11T11:28:39.613Z,16.65
2023-02-11T11:31:15.462Z,16.70
2023-02-11T11:33:45.101Z,15.48
2023-02-11T11:36:15.242Z,14.65
2023-02-11T11:38:50.246Z,14.85
2023-02-11T11:41:21.291Z,14.48
2023-02-11T11:44:00.783Z,14.05
2023-02-11T11:46:31.413Z,15.38
2023-02-11T11:49:14.138Z,14.40
2023-02-11T11:51:45.545Z,15.35
2023-02-11T11:54:18.668Z,16.63
2023-02-11T11:56:53.664Z,13.27
2023-02-11T11:59:23.105Z,13.05
2023-02-11T12:02:08.110Z,13.82
2023-02-11T12:04:53.293Z,12.63
2023-02-11T12:07:31.582Z,11.88
2023-02-11T12:10:24.824Z,13.10
2023-02-11T12:15:32.144Z,12.88
2023-02-11T12:18:17.450Z,11.32
2023-02-11T12:21:02.183Z,10.65
2023-02-11T12:23:45.647Z,10.65
2023-02-11T12:26:18.346Z,10.98
2023-02-11T12:31:29.355Z,11.57
2023-02-11T12:34:19.254Z,9.65
2023-02-11T12:37:07.929Z,9.77
2023-02-11T12:39:43.636Z,9.82
2023-02-11T12:42:42.807Z,12.13
2023-02-11T12:45:22.649Z,10.88
2023-02-11T12:48:02.485Z,11.48
2023-02-11T12:50:37.603Z,11.10
2023-02-11T12:53:26.316Z,11.30
2023-02-11T12:55:58.867Z,10.93
2023-02-11T12:58:44.517Z,11.10
2023-02-11T13:01:19.568Z,11.18
2023-02-11T13:03:51.285Z,11.40
2023-02-11T13:06:23.278Z,10.60
2023-02-11T13:08:54.374Z,11.52
2023-02-11T13:11:25.488Z,11.23
2023-02-11T13:13:58.527Z,12.05
2023-02-11T13:16:35.968Z,10.70
2023-02-11T13:19:15.245Z,11.60
2023-02-11T13:21:54.094Z,12.07
2023-02-11T13:24:30.350Z,12.70
2023-02-11T13:27:05.620Z,13.05
2023-02-11T13:29:51.613Z,13.82
2023-02-11T13:32:19.365Z,14.13
2023-02-11T13:35:26.768Z,14.13
2023-02-11T13:37:54.576Z,14.30
2023-02-11T13:40:25.204Z,14.05
2023-02-11T13:42:55.215Z,14.85
2023-02-11T13:45:31.715Z,14.60
2023-02-11T13:48:00.824Z,15.27
2023-02-11T13:50:29.361Z,14.57
2023-02-11T13:53:02.332Z,15.82
2023-02-11T13:55:31.276Z,15.07
2023-02-11T13:58:19.627Z,14.55
2023-02-11T14:00:51.947Z,15.27
2023-02-11T14:03:43.933Z,15.68
2023-02-11T14:06:34.854Z,14.93
2023-02-11T14:09:26.673Z,16.02
2023-02-11T14:11:57.126Z,15.25
2023-02-11T14:14:26.804Z,16.05
2023-02-11T14:17:21.268Z,15.90
2023-02-11T14:19:50.779Z,15.68
2023-02-11T14:22:21.776Z,15.93
2023-02-11T14:24:52.855Z,14.80
2023-02-11T14:27:26.662Z,15.27
2023-02-11T14:30:07.185Z,14.85
2023-02-11T14:32:44.050Z,14.70
2023-02-11T14:35:20.373Z,14.25
2023-02-11T14:37:56.869Z,14.75
2023-02-11T14:40:30.491Z,14.35
2023-02-11T14:43:02.820Z,14.77
2023-02-11T14:48:04.420Z,14.65
2023-02-11T14:50:42.975Z,15.45
2023-02-11T14:53:16.199Z,15.07
2023-02-11T14:55:47.096Z,14.98
2023-02-11T14:58:17.602Z,14.57
2023-02-11T15:00:56.531Z,14.57
2023-02-11T15:03:37.230Z,14.65
2023-02-11T15:06:13.445Z,15.00
2023-02-11T15:08:46.045Z,13.75
2023-02-11T15:13:47.286Z,14.43
2023-02-11T15:16:18.562Z,15.07
2023-02-11T15:18:48.886Z,14.60
2023-02-11T15:21:23.760Z,14.85
2023-02-11T15:24:00.007Z,14.75
2023-02-11T15:26:28.273Z,14.48
2023-02-11T15:28:56.344Z,15.18
2023-02-11T15:31:26.795Z,14.55
2023-02-11T15:33:55.302Z,14.23
2023-02-11T15:36:36.206Z,15.27
2023-02-11T15:39:29.806Z,15.25
2023-02-11T15:41:57.628Z,15.68
2023-02-11T15:44:29.477Z,14.85
2023-02-11T15:46:57.384Z,14.55
2023-02-11T15:49:26.042Z,14.63
2023-02-11T15:51:57.445Z,14.88
2023-02-11T15:54:29.469Z,14.50
2023-02-11T15:57:02.935Z,15.25
2023-02-11T15:59:35.306Z,16.20
2023-02-11T16:02:09.114Z,16.27
2023-02-11T16:04:37.433Z,14.95
2023-02-11T16:07:06.558Z,15.55
2023-02-11T16:09:36.092Z,16.30
2023-02-11T16:12:07.587Z,16.70
2023-02-11T16:14:41.196Z,16.23
2023-02-11T16:17:12.063Z,17.05
2023-02-11T16:19:45.156Z,17.08
2023-02-11T16:22:20.517Z,16.23
2023-02-11T16:24:49.928Z,17.58
2023-02-11T16:27:23.451Z,16.85
2023-02-11T16:29:52.904Z,16.92
2023-02-11T16:32:23.299Z,16.98
2023-02-11T16:34:52.369Z,16.45
2023-02-11T16:37:22.002Z,16.83
2023-02-11T16:39:49.823Z,17.25
2023-02-11T16:42:17.784Z,17.35
2023-02-11T16:44:45.999Z,18.02
2023-02-11T16:47:21.005Z,17.48
2023-02-11T16:49:48.974Z,16.95
2023-02-11T16:52:18.952Z,16.10
2023-02-11T16:54:48.243Z,17.58
2023-02-11T16:57:18.304Z,16.92
2023-02-11T16:59:46.670Z,16.67
2023-02-11T17:02:17.644Z,16.52
2023-02-11T17:04:45.788Z,17.98
2023-02-11T17:07:13.620Z,18.38
2023-02-11T17:09:41.319Z,16.83
2023-02-11T17:12:10.371Z,17.67
2023-02-11T17:14:38.247Z,17.67
2023-02-11T17:17:06.111Z,17.17
2023-02-11T17:19:33.954Z,17.05
2023-02-11T17:22:01.699Z,18.27
2023-02-11T17:24:29.510Z,17.10
2023-02-11T17:26:57.327Z,18.08
2023-02-11T17:29:27.124Z,18.27
2023-02-11T17:31:55.049Z,16.67
2023-02-11T17:34:23.846Z,16.50
2023-02-11T17:36:52.270Z,17.25
2023-02-11T17:39:21.081Z,16.95
2023-02-11T17:41:48.941Z,16.33
2023-02-11T17:44:16.752Z,16.98
2023-02-11T17:46:45.779Z,16.88
2023-02-11T17:49:13.895Z,15.95
2023-02-11T17:51:41.726Z,16.33
2023-02-11T17:54:12.555Z,16.85
2023-02-11T17:56:40.624Z,16.73
2023-02-11T17:59:09.829Z,16.02
2023-02-11T18:01:39.042Z,16.02
2023-02-11T18:04:09.456Z,18.13
2023-02-11T18:06:37.271Z,17.90
2023-02-11T18:09:05.031Z,17.48
2023-02-11T18:11:34.328Z,18.45
2023-02-11T18:14:04.610Z,17.30
2023-02-11T18:16:34.922Z,17.88
2023-02-11T18:19:06.613Z,17.38
2023-02-11T18:21:36.425Z,18.83
2023-02-11T18:24:06.916Z,23.67
2023-02-11T18:26:35.866Z,25.75
2023-02-11T18:29:06.237Z,18.95
2023-02-11T18:31:35.241Z,16.50
2023-02-11T18:34:03.674Z,17.73
2023-02-11T18:36:31.527Z,20.35
2023-02-11T18:39:00.801Z,24.48
2023-02-11T18:41:28.665Z,24.58
2023-02-11T18:44:02.668Z,28.13
2023-02-11T18:46:31.358Z,19.52
2023-02-11T18:48:59.139Z,16.73
2023-02-11T18:51:27.148Z,17.33
2023-02-11T18:53:54.847Z,17.20
2023-02-11T18:56:25.090Z,17.45
2023-02-11T18:58:52.989Z,17.75
2023-02-11T19:01:22.795Z,19.27
2023-02-11T19:03:51.014Z,20.83
2023-02-11T19:06:21.709Z,23.30
2023-02-11T19:08:49.495Z,20.48
2023-02-11T19:11:18.762Z,21.08
2023-02-11T19:13:48.779Z,19.40
2023-02-11T19:16:19.654Z,19.55
2023-02-11T19:18:47.447Z,17.92
2023-02-11T19:21:15.168Z,16.77
2023-02-11T19:23:42.893Z,15.38
2023-02-11T19:26:10.675Z,15.85
2023-02-11T19:28:39.090Z,16.75
2023-02-11T19:31:09.794Z,16.45
2023-02-11T19:33:37.902Z,17.63
2023-02-11T19:36:07.726Z,17.05
2023-02-11T19:38:35.686Z,17.42
2023-02-11T19:41:03.601Z,19.63
2023-02-11T19:43:31.371Z,18.92
2023-02-11T19:46:00.688Z,19.40
2023-02-11T19:51:51.863Z,18.48
2023-02-11T19:54:20.194Z,16.27
2023-02-11T19:56:48.883Z,16.42
2023-02-11T19:59:25.746Z,16.23
2023-02-11T20:01:53.874Z,16.92
2023-02-11T20:04:32.117Z,17.13
2023-02-11T20:07:01.426Z,17.67
2023-02-11T20:09:31.294Z,17.52
2023-02-11T20:11:59.512Z,18.23
2023-02-11T20:14:28.163Z,25.20
2023-02-11T20:16:56.069Z,22.25
2023-02-11T20:19:23.882Z,23.52
2023-02-11T20:21:53.363Z,21.75
2023-02-11T20:24:23.501Z,23.15
2023-02-11T20:26:55.311Z,23.33
2023-02-11T20:29:23.693Z,23.40
2023-02-11T20:31:51.856Z,21.35
2023-02-11T20:34:21.041Z,23.27
2023-02-11T20:36:52.111Z,23.17
2023-02-11T20:39:21.744Z,21.85
2023-02-11T20:41:51.848Z,22.67
2023-02-11T20:44:21.594Z,21.05
2023-02-11T20:46:49.812Z,17.52
2023-02-11T20:49:19.119Z,18.25
2023-02-11T20:51:47.447Z,17.90
2023-02-11T20:54:17.201Z,17.80
2023-02-11T20:56:47.823Z,20.15
2023-02-11T20:59:18.228Z,18.67
2023-02-11T21:01:48.594Z,18.80
2023-02-11T21:04:18.011Z,19.38
2023-02-11T21:06:48.203Z,18.08
2023-02-11T21:09:19.585Z,18.88
2023-02-11T21:11:49.790Z,17.65
2023-02-11T21:14:19.336Z,19.05
2023-02-11T21:16:47.235Z,19.83
2023-02-11T21:19:15.316Z,19.10
2023-02-11T21:21:42.990Z,19.00
2023-02-11T21:24:11.603Z,25.35
2023-02-11T21:26:39.884Z,20.73
2023-02-11T21:29:09.168Z,22.77
2023-02-11T21:31:41.099Z,23.60
2023-02-11T21:34:08.910Z,21.87
2023-02-11T21:36:36.663Z,22.58
2023-02-11T21:39:05.886Z,21.50
2023-02-11T21:41:34.056Z,20.55
2023-02-11T21:44:02.316Z,20.77
2023-02-11T21:46:34.705Z,21.90
2023-02-11T21:49:05.116Z,21.05
2023-02-11T21:51:32.871Z,22.92
2023-02-11T21:54:02.413Z,23.15
2023-02-11T21:56:51.679Z,24.00
2023-02-11T21:59:29.411Z,22.70
2023-02-11T22:01:59.089Z,24.67
2023-02-11T22:04:28.341Z,23.27
2023-02-11T22:06:56.103Z,23.10
2023-02-11T22:09:23.853Z,25.98
2023-02-11T22:11:51.545Z,22.92
2023-02-11T22:14:19.245Z,24.05
2023-02-11T22:16:48.295Z,26.05
2023-02-11T22:19:16.259Z,23.88
2023-02-11T22:21:45.301Z,24.30
2023-02-11T22:24:13.029Z,23.52
2023-02-11T22:26:40.955Z,21.98
2023-02-11T22:29:08.974Z,18.02
2023-02-11T22:31:37.468Z,18.23
2023-02-11T22:34:05.989Z,19.33
2023-02-11T22:36:35.518Z,19.55
2023-02-11T22:39:07.015Z,19.77
2023-02-11T22:41:34.833Z,17.00
2023-02-11T22:44:02.716Z,17.67
2023-02-11T22:46:30.651Z,15.80
2023-02-11T22:48:58.421Z,15.75
2023-02-11T22:51:28.356Z,16.98
2023-02-11T22:53:59.330Z,17.60
2023-02-11T22:56:30.253Z,18.88
2023-02-11T22:58:59.002Z,17.85
2023-02-11T23:01:27.019Z,17.13
2023-02-11T23:03:54.892Z,15.68
2023-02-11T23:06:22.724Z,17.05
2023-02-11T23:08:50.416Z,34.30
2023-02-11T23:11:20.757Z,24.55
2023-02-11T23:13:52.306Z,21.05
2023-02-11T23:16:25.870Z,19.00
2023-02-11T23:18:54.426Z,19.33
2023-02-11T23:21:24.239Z,17.65
2023-02-11T23:23:56.065Z,17.80
2023-02-11T23:26:24.180Z,18.27
2023-02-11T23:28:53.734Z,18.38
2023-02-11T23:31:23.302Z,19.15
2023-02-11T23:33:51.158Z,20.52
2023-02-11T23:36:20.228Z,19.85
2023-02-11T23:38:48.236Z,20.30
2023-02-11T23:41:16.862Z,19.45
2023-02-11T23:43:45.144Z,20.95
2023-02-11T23:46:16.674Z,20.42
2023-02-11T23:48:44.433Z,22.70
2023-02-11T23:51:12.261Z,20.42
2023-02-11T23:53:41.021Z,19.33
2023-02-11T23:56:11.788Z,20.17
2023-02-11T23:58:39.466Z,20.00
